sensor_id;sensor_type;location;lat;lon;timestamp;P1;durP1;ratioP1;P2;durP2;ratioP2
21334;SDS011;10826;52.536;13.432;2022-09-02T00:00:54;3.00;;;1.50;;
21334;SDS011;10826;52.536;13.432;2022-09-02T00:03:29;1.20;;;1.10;;
21334;SDS011;10826;52.536;13.432;2022-09-02T00:05:59;1.43;;;1.33;;
21334;SDS011;10826;52.536;13.432;2022-09-02T00:08:26;1.10;;;1.10;;
21334;SDS011;10826;52.536;13.432;2022-09-02T00:10:56;1.20;;;1.20;;
21334;SDS011;10826;52.536;13.432;2022-09-02T00:13:26;1.73;;;1.03;;
21334;SDS011;10826;52.536;13.432;2022-09-02T00:15:53;1.20;;;1.10;;
21334;SDS011;10826;52.536;13.432;2022-09-02T00:18:21;2.13;;;1.67;;
21334;SDS011;10826;52.536;13.432;2022-09-02T00:20:51;1.17;;;1.00;;
21334;SDS011;10826;52.536;13.432;2022-09-02T00:23:17;1.30;;;1.20;;
21334;SDS011;10826;52.536;13.432;2022-09-02T00:25:43;1.30;;;1.20;;
21334;SDS011;10826;52.536;13.432;2022-09-02T00:28:12;1.27;;;1.20;;
21334;SDS011;10826;52.536;13.432;2022-09-02T00:30:39;1.10;;;1.10;;
21334;SDS011;10826;52.536;13.432;2022-09-02T00:33:06;1.60;;;1.40;;
21334;SDS011;10826;52.536;13.432;2022-09-02T00:35:33;1.10;;;1.00;;
21334;SDS011;10826;52.536;13.432;2022-09-02T00:38:00;1.43;;;1.37;;
21334;SDS011;10826;52.536;13.432;2022-09-02T00:40:27;2.27;;;1.43;;
21334;SDS011;10826;52.536;13.432;2022-09-02T00:42:54;1.30;;;1.30;;
21334;SDS011;10826;52.536;13.432;2022-09-02T00:45:20;2.20;;;1.10;;
21334;SDS011;10826;52.536;13.432;2022-09-02T00:47:47;1.27;;;1.27;;
21334;SDS011;10826;52.536;13.432;2022-09-02T00:50:17;1.50;;;1.40;;
21334;SDS011;10826;52.536;13.432;2022-09-02T00:53:09;2.83;;;1.37;;
21334;SDS011;10826;52.536;13.432;2022-09-02T00:55:44;1.73;;;1.63;;
21334;SDS011;10826;52.536;13.432;2022-09-02T00:58:25;3.40;;;1.60;;
21334;SDS011;10826;52.536;13.432;2022-09-02T01:00:56;4.30;;;1.30;;
21334;SDS011;10826;52.536;13.432;2022-09-02T01:03:26;1.40;;;1.30;;
21334;SDS011;10826;52.536;13.432;2022-09-02T01:05:57;1.30;;;1.20;;
21334;SDS011;10826;52.536;13.432;2022-09-02T01:08:27;1.27;;;1.17;;
21334;SDS011;10826;52.536;13.432;2022-09-02T01:10:59;1.00;;;1.00;;
21334;SDS011;10826;52.536;13.432;2022-09-02T01:13:28;1.00;;;1.00;;
21334;SDS011;10826;52.536;13.432;2022-09-02T01:19:05;1.23;;;1.13;;
21334;SDS011;10826;52.536;13.432;2022-09-02T01:21:46;2.07;;;1.00;;
21334;SDS011;10826;52.536;13.432;2022-09-02T01:24:18;1.53;;;1.10;;
21334;SDS011;10826;52.536;13.432;2022-09-02T01:26:47;2.10;;;1.00;;
21334;SDS011;10826;52.536;13.432;2022-09-02T01:29:17;1.17;;;1.07;;
21334;SDS011;10826;52.536;13.432;2022-09-02T01:31:44;1.43;;;0.90;;
21334;SDS011;10826;52.536;13.432;2022-09-02T01:34:10;1.93;;;1.20;;
21334;SDS011;10826;52.536;13.432;2022-09-02T01:36:37;1.40;;;1.30;;
21334;SDS011;10826;52.536;13.432;2022-09-02T01:39:05;0.97;;;0.97;;
21334;SDS011;10826;52.536;13.432;2022-09-02T01:41:32;1.60;;;1.03;;
21334;SDS011;10826;52.536;13.432;2022-09-02T01:43:58;1.23;;;1.13;;
21334;SDS011;10826;52.536;13.432;2022-09-02T01:46:24;1.93;;;1.20;;
21334;SDS011;10826;52.536;13.432;2022-09-02T01:48:50;2.20;;;1.13;;
21334;SDS011;10826;52.536;13.432;2022-09-02T01:51:17;2.30;;;1.07;;
21334;SDS011;10826;52.536;13.432;2022-09-02T01:53:44;1.00;;;1.00;;
21334;SDS011;10826;52.536;13.432;2022-09-02T01:56:12;1.43;;;1.30;;
21334;SDS011;10826;52.536;13.432;2022-09-02T01:58:39;1.20;;;1.10;;
21334;SDS011;10826;52.536;13.432;2022-09-02T02:01:06;1.47;;;1.30;;
21334;SDS011;10826;52.536;13.432;2022-09-02T02:03:33;1.10;;;1.10;;
21334;SDS011;10826;52.536;13.432;2022-09-02T02:06:01;1.20;;;1.20;;
21334;SDS011;10826;52.536;13.432;2022-09-02T02:08:34;0.93;;;0.93;;
21334;SDS011;10826;52.536;13.432;2022-09-02T02:11:00;0.90;;;0.90;;
21334;SDS011;10826;52.536;13.432;2022-09-02T02:13:26;1.40;;;1.30;;
21334;SDS011;10826;52.536;13.432;2022-09-02T02:15:51;1.00;;;1.00;;
21334;SDS011;10826;52.536;13.432;2022-09-02T02:18:17;1.23;;;1.13;;
21334;SDS011;10826;52.536;13.432;2022-09-02T02:20:43;1.37;;;1.17;;
21334;SDS011;10826;52.536;13.432;2022-09-02T02:23:10;1.43;;;1.10;;
21334;SDS011;10826;52.536;13.432;2022-09-02T02:25:36;1.80;;;1.33;;
21334;SDS011;10826;52.536;13.432;2022-09-02T02:28:02;1.47;;;1.20;;
21334;SDS011;10826;52.536;13.432;2022-09-02T02:30:29;1.27;;;1.27;;
21334;SDS011;10826;52.536;13.432;2022-09-02T02:32:59;0.87;;;0.87;;
21334;SDS011;10826;52.536;13.432;2022-09-02T02:35:25;3.17;;;1.27;;
21334;SDS011;10826;52.536;13.432;2022-09-02T02:37:52;2.60;;;1.00;;
21334;SDS011;10826;52.536;13.432;2022-09-02T02:40:19;1.30;;;1.30;;
21334;SDS011;10826;52.536;13.432;2022-09-02T02:42:48;1.50;;;1.40;;
21334;SDS011;10826;52.536;13.432;2022-09-02T02:45:17;2.17;;;1.37;;
21334;SDS011;10826;52.536;13.432;2022-09-02T02:47:44;2.20;;;1.40;;
21334;SDS011;10826;52.536;13.432;2022-09-02T02:50:12;3.03;;;1.53;;
21334;SDS011;10826;52.536;13.432;2022-09-02T02:52:41;1.53;;;1.43;;
21334;SDS011;10826;52.536;13.432;2022-09-02T02:55:09;2.00;;;1.60;;
21334;SDS011;10826;52.536;13.432;2022-09-02T02:57:37;1.50;;;1.40;;
21334;SDS011;10826;52.536;13.432;2022-09-02T03:02:50;1.60;;;1.50;;
21334;SDS011;10826;52.536;13.432;2022-09-02T03:05:21;2.23;;;1.80;;
21334;SDS011;10826;52.536;13.432;2022-09-02T03:07:48;1.57;;;1.47;;
21334;SDS011;10826;52.536;13.432;2022-09-02T03:10:14;1.73;;;1.63;;
21334;SDS011;10826;52.536;13.432;2022-09-02T03:12:40;1.80;;;1.50;;
21334;SDS011;10826;52.536;13.432;2022-09-02T03:15:06;2.73;;;1.00;;
21334;SDS011;10826;52.536;13.432;2022-09-02T03:17:35;1.57;;;1.47;;
21334;SDS011;10826;52.536;13.432;2022-09-02T03:20:02;1.27;;;1.17;;
21334;SDS011;10826;52.536;13.432;2022-09-02T03:22:30;2.17;;;1.53;;
21334;SDS011;10826;52.536;13.432;2022-09-02T03:24:56;4.10;;;1.60;;
21334;SDS011;10826;52.536;13.432;2022-09-02T03:27:22;1.30;;;1.20;;
21334;SDS011;10826;52.536;13.432;2022-09-02T03:29:48;3.20;;;1.70;;
21334;SDS011;10826;52.536;13.432;2022-09-02T03:32:14;1.50;;;1.40;;
21334;SDS011;10826;52.536;13.432;2022-09-02T03:34:40;2.63;;;1.40;;
21334;SDS011;10826;52.536;13.432;2022-09-02T03:37:06;1.43;;;1.37;;
21334;SDS011;10826;52.536;13.432;2022-09-02T03:39:32;3.20;;;1.30;;
21334;SDS011;10826;52.536;13.432;2022-09-02T03:42:00;3.27;;;1.60;;
21334;SDS011;10826;52.536;13.432;2022-09-02T03:44:26;3.73;;;1.67;;
21334;SDS011;10826;52.536;13.432;2022-09-02T03:46:52;1.73;;;1.63;;
21334;SDS011;10826;52.536;13.432;2022-09-02T03:49:18;1.50;;;1.40;;
21334;SDS011;10826;52.536;13.432;2022-09-02T03:51:46;2.87;;;1.37;;
21334;SDS011;10826;52.536;13.432;2022-09-02T03:54:12;1.50;;;1.40;;
21334;SDS011;10826;52.536;13.432;2022-09-02T03:56:39;1.60;;;1.50;;
21334;SDS011;10826;52.536;13.432;2022-09-02T03:59:05;1.50;;;1.40;;
21334;SDS011;10826;52.536;13.432;2022-09-02T04:01:31;2.87;;;1.33;;
21334;SDS011;10826;52.536;13.432;2022-09-02T04:03:57;1.87;;;1.77;;
21334;SDS011;10826;52.536;13.432;2022-09-02T04:06:24;1.90;;;1.50;;
21334;SDS011;10826;52.536;13.432;2022-09-02T04:08:50;1.93;;;1.83;;
21334;SDS011;10826;52.536;13.432;2022-09-02T04:11:17;1.73;;;1.63;;
21334;SDS011;10826;52.536;13.432;2022-09-02T04:13:46;1.70;;;1.60;;
21334;SDS011;10826;52.536;13.432;2022-09-02T04:16:15;1.83;;;1.73;;
21334;SDS011;10826;52.536;13.432;2022-09-02T04:18:45;1.57;;;1.47;;
21334;SDS011;10826;52.536;13.432;2022-09-02T04:21:11;1.97;;;1.60;;
21334;SDS011;10826;52.536;13.432;2022-09-02T04:23:38;1.30;;;1.27;;
21334;SDS011;10826;52.536;13.432;2022-09-02T04:26:05;4.33;;;1.93;;
21334;SDS011;10826;52.536;13.432;2022-09-02T04:28:34;2.23;;;1.63;;
21334;SDS011;10826;52.536;13.432;2022-09-02T04:31:09;6.60;;;2.00;;
21334;SDS011;10826;52.536;13.432;2022-09-02T04:33:37;5.73;;;1.87;;
21334;SDS011;10826;52.536;13.432;2022-09-02T04:36:05;2.13;;;1.73;;
21334;SDS011;10826;52.536;13.432;2022-09-02T04:38:34;1.80;;;1.60;;
21334;SDS011;10826;52.536;13.432;2022-09-02T04:41:04;2.13;;;1.90;;
21334;SDS011;10826;52.536;13.432;2022-09-02T04:43:36;2.47;;;1.40;;
21334;SDS011;10826;52.536;13.432;2022-09-02T04:46:04;1.80;;;1.70;;
21334;SDS011;10826;52.536;13.432;2022-09-02T04:48:33;1.60;;;1.50;;
21334;SDS011;10826;52.536;13.432;2022-09-02T04:51:08;1.83;;;1.57;;
21334;SDS011;10826;52.536;13.432;2022-09-02T04:53:40;3.10;;;1.60;;
21334;SDS011;10826;52.536;13.432;2022-09-02T04:56:09;1.80;;;1.70;;
21334;SDS011;10826;52.536;13.432;2022-09-02T04:58:40;1.80;;;1.60;;
21334;SDS011;10826;52.536;13.432;2022-09-02T05:01:12;1.63;;;1.47;;
21334;SDS011;10826;52.536;13.432;2022-09-02T05:03:42;3.77;;;1.77;;
21334;SDS011;10826;52.536;13.432;2022-09-02T05:06:10;1.50;;;1.40;;
21334;SDS011;10826;52.536;13.432;2022-09-02T05:08:41;2.30;;;1.90;;
21334;SDS011;10826;52.536;13.432;2022-09-02T05:11:08;3.47;;;1.90;;
21334;SDS011;10826;52.536;13.432;2022-09-02T05:13:44;1.73;;;1.63;;
21334;SDS011;10826;52.536;13.432;2022-09-02T05:16:17;1.87;;;1.77;;
21334;SDS011;10826;52.536;13.432;2022-09-02T05:18:46;2.50;;;1.73;;
21334;SDS011;10826;52.536;13.432;2022-09-02T05:21:14;3.27;;;1.70;;
21334;SDS011;10826;52.536;13.432;2022-09-02T05:23:41;2.00;;;1.87;;
21334;SDS011;10826;52.536;13.432;2022-09-02T05:26:08;6.80;;;2.40;;
21334;SDS011;10826;52.536;13.432;2022-09-02T05:28:37;5.63;;;1.93;;
21334;SDS011;10826;52.536;13.432;2022-09-02T05:31:06;2.70;;;1.87;;
21334;SDS011;10826;52.536;13.432;2022-09-02T05:33:38;2.63;;;1.47;;
21334;SDS011;10826;52.536;13.432;2022-09-02T05:36:07;1.70;;;1.60;;
21334;SDS011;10826;52.536;13.432;2022-09-02T05:38:39;1.90;;;1.80;;
21334;SDS011;10826;52.536;13.432;2022-09-02T05:41:07;2.37;;;1.70;;
21334;SDS011;10826;52.536;13.432;2022-09-02T05:43:36;1.80;;;1.70;;
21334;SDS011;10826;52.536;13.432;2022-09-02T05:46:07;3.63;;;1.70;;
21334;SDS011;10826;52.536;13.432;2022-09-02T05:48:37;2.97;;;2.00;;
21334;SDS011;10826;52.536;13.432;2022-09-02T05:51:22;1.83;;;1.67;;
21334;SDS011;10826;52.536;13.432;2022-09-02T05:53:53;4.50;;;1.93;;
21334;SDS011;10826;52.536;13.432;2022-09-02T05:56:21;3.40;;;1.70;;
21334;SDS011;10826;52.536;13.432;2022-09-02T05:58:48;1.90;;;1.67;;
21334;SDS011;10826;52.536;13.432;2022-09-02T06:01:16;3.20;;;1.67;;
21334;SDS011;10826;52.536;13.432;2022-09-02T06:03:43;1.93;;;1.73;;
21334;SDS011;10826;52.536;13.432;2022-09-02T06:06:10;2.57;;;1.90;;
21334;SDS011;10826;52.536;13.432;2022-09-02T06:08:39;3.53;;;2.20;;
21334;SDS011;10826;52.536;13.432;2022-09-02T06:11:07;5.20;;;1.80;;
21334;SDS011;10826;52.536;13.432;2022-09-02T06:13:36;7.63;;;2.10;;
21334;SDS011;10826;52.536;13.432;2022-09-02T06:16:07;1.83;;;1.73;;
21334;SDS011;10826;52.536;13.432;2022-09-02T06:18:37;2.53;;;1.80;;
21334;SDS011;10826;52.536;13.432;2022-09-02T06:21:04;2.77;;;2.10;;
21334;SDS011;10826;52.536;13.432;2022-09-02T06:23:32;2.43;;;1.73;;
21334;SDS011;10826;52.536;13.432;2022-09-02T06:26:02;5.90;;;2.10;;
21334;SDS011;10826;52.536;13.432;2022-09-02T06:28:28;2.20;;;1.70;;
21334;SDS011;10826;52.536;13.432;2022-09-02T06:30:55;3.13;;;1.83;;
21334;SDS011;10826;52.536;13.432;2022-09-02T06:33:21;1.77;;;1.67;;
21334;SDS011;10826;52.536;13.432;2022-09-02T06:35:47;7.87;;;2.07;;
21334;SDS011;10826;52.536;13.432;2022-09-02T06:38:13;5.10;;;1.83;;
21334;SDS011;10826;52.536;13.432;2022-09-02T06:40:53;2.23;;;2.00;;
21334;SDS011;10826;52.536;13.432;2022-09-02T06:43:20;7.00;;;2.33;;
21334;SDS011;10826;52.536;13.432;2022-09-02T06:45:46;7.00;;;2.10;;
21334;SDS011;10826;52.536;13.432;2022-09-02T06:48:12;2.90;;;2.00;;
21334;SDS011;10826;52.536;13.432;2022-09-02T06:50:39;2.87;;;2.40;;
21334;SDS011;10826;52.536;13.432;2022-09-02T06:53:08;20.33;;;4.07;;
21334;SDS011;10826;52.536;13.432;2022-09-02T06:55:37;5.37;;;2.17;;
21334;SDS011;10826;52.536;13.432;2022-09-02T06:58:07;4.23;;;2.43;;
21334;SDS011;10826;52.536;13.432;2022-09-02T07:00:33;4.47;;;2.27;;
21334;SDS011;10826;52.536;13.432;2022-09-02T07:03:01;3.87;;;2.10;;
21334;SDS011;10826;52.536;13.432;2022-09-02T07:05:56;4.43;;;1.97;;
21334;SDS011;10826;52.536;13.432;2022-09-02T07:08:34;5.57;;;2.17;;
21334;SDS011;10826;52.536;13.432;2022-09-02T07:11:03;3.60;;;2.03;;
21334;SDS011;10826;52.536;13.432;2022-09-02T07:13:32;7.13;;;2.23;;
21334;SDS011;10826;52.536;13.432;2022-09-02T07:15:59;6.93;;;2.00;;
21334;SDS011;10826;52.536;13.432;2022-09-02T07:18:26;3.03;;;1.93;;
21334;SDS011;10826;52.536;13.432;2022-09-02T07:20:53;4.43;;;1.90;;
21334;SDS011;10826;52.536;13.432;2022-09-02T07:23:20;6.17;;;2.30;;
21334;SDS011;10826;52.536;13.432;2022-09-02T07:25:45;2.37;;;2.17;;
21334;SDS011;10826;52.536;13.432;2022-09-02T07:28:11;2.07;;;1.80;;
21334;SDS011;10826;52.536;13.432;2022-09-02T07:30:39;2.53;;;2.13;;
21334;SDS011;10826;52.536;13.432;2022-09-02T07:33:08;1.60;;;1.50;;
21334;SDS011;10826;52.536;13.432;2022-09-02T07:35:38;4.17;;;1.87;;
21334;SDS011;10826;52.536;13.432;2022-09-02T07:38:06;5.53;;;2.10;;
21334;SDS011;10826;52.536;13.432;2022-09-02T07:40:34;1.70;;;1.60;;
21334;SDS011;10826;52.536;13.432;2022-09-02T07:43:02;2.73;;;1.60;;
21334;SDS011;10826;52.536;13.432;2022-09-02T07:45:30;2.53;;;2.13;;
21334;SDS011;10826;52.536;13.432;2022-09-02T07:47:59;4.07;;;1.60;;
21334;SDS011;10826;52.536;13.432;2022-09-02T07:50:25;3.97;;;1.60;;
21334;SDS011;10826;52.536;13.432;2022-09-02T07:52:55;3.93;;;2.10;;
21334;SDS011;10826;52.536;13.432;2022-09-02T07:55:23;18.63;;;2.40;;
21334;SDS011;10826;52.536;13.432;2022-09-02T07:57:51;6.07;;;2.00;;
21334;SDS011;10826;52.536;13.432;2022-09-02T08:00:18;2.03;;;1.50;;
21334;SDS011;10826;52.536;13.432;2022-09-02T08:02:47;2.37;;;1.60;;
21334;SDS011;10826;52.536;13.432;2022-09-02T08:05:13;6.73;;;2.00;;
21334;SDS011;10826;52.536;13.432;2022-09-02T08:07:40;7.77;;;2.33;;
21334;SDS011;10826;52.536;13.432;2022-09-02T08:10:06;3.20;;;1.80;;
21334;SDS011;10826;52.536;13.432;2022-09-02T08:12:36;3.03;;;2.00;;
21334;SDS011;10826;52.536;13.432;2022-09-02T08:15:06;1.67;;;1.50;;
21334;SDS011;10826;52.536;13.432;2022-09-02T08:17:34;2.63;;;1.30;;
21334;SDS011;10826;52.536;13.432;2022-09-02T08:20:00;1.50;;;1.40;;
21334;SDS011;10826;52.536;13.432;2022-09-02T08:22:33;12.50;;;2.23;;
21334;SDS011;10826;52.536;13.432;2022-09-02T08:25:01;2.00;;;1.80;;
21334;SDS011;10826;52.536;13.432;2022-09-02T08:27:31;2.27;;;1.63;;
21334;SDS011;10826;52.536;13.432;2022-09-02T08:29:58;1.40;;;1.30;;
21334;SDS011;10826;52.536;13.432;2022-09-02T08:32:26;2.53;;;1.50;;
21334;SDS011;10826;52.536;13.432;2022-09-02T08:34:53;1.93;;;1.40;;
21334;SDS011;10826;52.536;13.432;2022-09-02T08:37:19;4.57;;;2.00;;
21334;SDS011;10826;52.536;13.432;2022-09-02T08:39:46;3.50;;;1.70;;
21334;SDS011;10826;52.536;13.432;2022-09-02T08:44:59;2.97;;;1.73;;
21334;SDS011;10826;52.536;13.432;2022-09-02T08:47:38;1.67;;;1.47;;
21334;SDS011;10826;52.536;13.432;2022-09-02T08:50:17;6.13;;;1.57;;
21334;SDS011;10826;52.536;13.432;2022-09-02T08:55:45;1.47;;;1.37;;
21334;SDS011;10826;52.536;13.432;2022-09-02T08:58:21;1.50;;;1.37;;
21334;SDS011;10826;52.536;13.432;2022-09-02T09:01:12;2.33;;;1.30;;
21334;SDS011;10826;52.536;13.432;2022-09-02T09:04:14;1.90;;;1.47;;
21334;SDS011;10826;52.536;13.432;2022-09-02T09:10:24;0.90;;;0.90;;
21334;SDS011;10826;52.536;13.432;2022-09-02T09:16:32;2.13;;;1.03;;
21334;SDS011;10826;52.536;13.432;2022-09-02T09:22:12;1.80;;;0.87;;
21334;SDS011;10826;52.536;13.432;2022-09-02T09:24:46;0.80;;;0.80;;
21334;SDS011;10826;52.536;13.432;2022-09-02T09:27:17;2.90;;;2.07;;
21334;SDS011;10826;52.536;13.432;2022-09-02T09:29:53;2.53;;;1.53;;
21334;SDS011;10826;52.536;13.432;2022-09-02T09:32:36;1.57;;;0.80;;
21334;SDS011;10826;52.536;13.432;2022-09-02T09:35:12;1.33;;;1.23;;
21334;SDS011;10826;52.536;13.432;2022-09-02T09:37:43;1.70;;;0.87;;
21334;SDS011;10826;52.536;13.432;2022-09-02T09:47:14;5.83;;;1.20;;
21334;SDS011;10826;52.536;13.432;2022-09-02T09:49:49;2.87;;;0.87;;
21334;SDS011;10826;52.536;13.432;2022-09-02T09:58:52;0.93;;;0.80;;
21334;SDS011;10826;52.536;13.432;2022-09-02T10:01:31;1.03;;;0.97;;
21334;SDS011;10826;52.536;13.432;2022-09-02T10:06:59;1.20;;;1.10;;
21334;SDS011;10826;52.536;13.432;2022-09-02T10:09:33;1.00;;;0.90;;
21334;SDS011;10826;52.536;13.432;2022-09-02T10:12:03;3.90;;;0.90;;
21334;SDS011;10826;52.536;13.432;2022-09-02T10:14:43;1.80;;;0.83;;
21334;SDS011;10826;52.536;13.432;2022-09-02T10:32:26;1.20;;;1.10;;
21334;SDS011;10826;52.536;13.432;2022-09-02T10:35:48;1.07;;;1.00;;
21334;SDS011;10826;52.536;13.432;2022-09-02T10:38:43;1.30;;;1.10;;
21334;SDS011;10826;52.536;13.432;2022-09-02T10:44:06;1.37;;;1.30;;
21334;SDS011;10826;52.536;13.432;2022-09-02T10:50:17;0.90;;;0.90;;
21334;SDS011;10826;52.536;13.432;2022-09-02T10:55:52;4.07;;;1.50;;
21334;SDS011;10826;52.536;13.432;2022-09-02T11:04:54;2.50;;;1.60;;
21334;SDS011;10826;52.536;13.432;2022-09-02T11:07:41;2.10;;;1.47;;
21334;SDS011;10826;52.536;13.432;2022-09-02T11:10:22;6.77;;;3.77;;
21334;SDS011;10826;52.536;13.432;2022-09-02T11:13:30;6.20;;;4.13;;
21334;SDS011;10826;52.536;13.432;2022-09-02T11:16:19;5.87;;;3.70;;
21334;SDS011;10826;52.536;13.432;2022-09-02T11:22:35;5.93;;;2.93;;
21334;SDS011;10826;52.536;13.432;2022-09-02T11:25:40;8.07;;;4.03;;
21334;SDS011;10826;52.536;13.432;2022-09-02T11:28:29;3.17;;;2.87;;
21334;SDS011;10826;52.536;13.432;2022-09-02T11:31:28;4.27;;;2.33;;
21334;SDS011;10826;52.536;13.432;2022-09-02T11:37:04;2.43;;;1.93;;
21334;SDS011;10826;52.536;13.432;2022-09-02T11:39:39;4.00;;;2.07;;
21334;SDS011;10826;52.536;13.432;2022-09-02T11:42:23;2.03;;;1.80;;
21334;SDS011;10826;52.536;13.432;2022-09-02T11:45:42;1.80;;;1.70;;
21334;SDS011;10826;52.536;13.432;2022-09-02T11:49:13;1.43;;;1.33;;
21334;SDS011;10826;52.536;13.432;2022-09-02T11:55:40;2.27;;;1.07;;
21334;SDS011;10826;52.536;13.432;2022-09-02T11:58:37;1.40;;;1.30;;
21334;SDS011;10826;52.536;13.432;2022-09-02T12:06:49;1.33;;;1.23;;
21334;SDS011;10826;52.536;13.432;2022-09-02T12:15:01;2.03;;;1.00;;
21334;SDS011;10826;52.536;13.432;2022-09-02T12:18:13;1.17;;;0.90;;
21334;SDS011;10826;52.536;13.432;2022-09-02T12:29:12;0.97;;;0.90;;
21334;SDS011;10826;52.536;13.432;2022-09-02T12:31:59;1.13;;;1.03;;
21334;SDS011;10826;52.536;13.432;2022-09-02T12:36:57;1.00;;;1.00;;
21334;SDS011;10826;52.536;13.432;2022-09-02T12:52:49;1.20;;;1.10;;
21334;SDS011;10826;52.536;13.432;2022-09-02T12:55:33;1.20;;;1.10;;
21334;SDS011;10826;52.536;13.432;2022-09-02T12:58:07;1.30;;;1.20;;
21334;SDS011;10826;52.536;13.432;2022-09-02T13:04:14;1.20;;;1.02;;
21334;SDS011;10826;52.536;13.432;2022-09-02T13:13:31;0.98;;;0.98;;
21334;SDS011;10826;52.536;13.432;2022-09-02T13:31:12;3.83;;;1.05;;
21334;SDS011;10826;52.536;13.432;2022-09-02T13:33:56;2.60;;;1.10;;
21334;SDS011;10826;52.536;13.432;2022-09-02T13:36:43;1.30;;;1.07;;
21334;SDS011;10826;52.536;13.432;2022-09-02T13:39:16;1.17;;;0.97;;
21334;SDS011;10826;52.536;13.432;2022-09-02T13:41:43;1.60;;;1.00;;
21334;SDS011;10826;52.536;13.432;2022-09-02T13:44:11;3.03;;;1.13;;
21334;SDS011;10826;52.536;13.432;2022-09-02T13:46:52;1.10;;;1.00;;
21334;SDS011;10826;52.536;13.432;2022-09-02T13:50:01;1.48;;;1.27;;
21334;SDS011;10826;52.536;13.432;2022-09-02T13:52:22;1.27;;;1.20;;
21334;SDS011;10826;52.536;13.432;2022-09-02T13:54:51;1.30;;;1.30;;
21334;SDS011;10826;52.536;13.432;2022-09-02T13:57:21;1.63;;;1.25;;
21334;SDS011;10826;52.536;13.432;2022-09-02T13:59:51;1.02;;;1.02;;
21334;SDS011;10826;52.536;13.432;2022-09-02T14:02:28;1.95;;;1.10;;
21334;SDS011;10826;52.536;13.432;2022-09-02T14:05:01;1.10;;;1.10;;
21334;SDS011;10826;52.536;13.432;2022-09-02T14:07:38;1.20;;;1.20;;
21334;SDS011;10826;52.536;13.432;2022-09-02T14:10:14;1.55;;;1.45;;
21334;SDS011;10826;52.536;13.432;2022-09-02T14:12:46;3.17;;;1.20;;
21334;SDS011;10826;52.536;13.432;2022-09-02T14:15:15;2.58;;;1.40;;
21334;SDS011;10826;52.536;13.432;2022-09-02T14:20:38;3.80;;;1.10;;
21334;SDS011;10826;52.536;13.432;2022-09-02T14:23:20;2.05;;;0.95;;
21334;SDS011;10826;52.536;13.432;2022-09-02T14:25:49;1.88;;;1.30;;
21334;SDS011;10826;52.536;13.432;2022-09-02T14:28:29;1.20;;;1.02;;
21334;SDS011;10826;52.536;13.432;2022-09-02T14:31:07;0.83;;;0.83;;
21334;SDS011;10826;52.536;13.432;2022-09-02T14:33:57;0.87;;;0.87;;
21334;SDS011;10826;52.536;13.432;2022-09-02T14:36:33;1.10;;;1.00;;
21334;SDS011;10826;52.536;13.432;2022-09-02T14:41:50;4.73;;;1.20;;
21334;SDS011;10826;52.536;13.432;2022-09-02T14:46:57;1.50;;;1.03;;
21334;SDS011;10826;52.536;13.432;2022-09-02T14:49:32;1.57;;;1.07;;
21334;SDS011;10826;52.536;13.432;2022-09-02T14:52:18;0.80;;;0.80;;
21334;SDS011;10826;52.536;13.432;2022-09-02T14:54:52;1.00;;;1.00;;
21334;SDS011;10826;52.536;13.432;2022-09-02T14:57:25;0.93;;;0.90;;
21334;SDS011;10826;52.536;13.432;2022-09-02T15:00:12;1.63;;;0.80;;
21334;SDS011;10826;52.536;13.432;2022-09-02T15:02:40;0.60;;;0.60;;
21334;SDS011;10826;52.536;13.432;2022-09-02T15:05:11;1.27;;;1.07;;
21334;SDS011;10826;52.536;13.432;2022-09-02T15:07:41;2.83;;;1.33;;
21334;SDS011;10826;52.536;13.432;2022-09-02T15:10:07;2.20;;;1.00;;
21334;SDS011;10826;52.536;13.432;2022-09-02T15:12:51;2.97;;;1.00;;
21334;SDS011;10826;52.536;13.432;2022-09-02T15:15:23;0.90;;;0.90;;
21334;SDS011;10826;52.536;13.432;2022-09-02T15:17:53;19.80;;;2.83;;
21334;SDS011;10826;52.536;13.432;2022-09-02T15:20:20;9.90;;;2.00;;
21334;SDS011;10826;52.536;13.432;2022-09-02T15:22:52;1.97;;;0.80;;
21334;SDS011;10826;52.536;13.432;2022-09-02T15:25:18;1.23;;;1.20;;
21334;SDS011;10826;52.536;13.432;2022-09-02T15:27:45;1.07;;;1.07;;
21334;SDS011;10826;52.536;13.432;2022-09-02T15:30:14;1.80;;;1.07;;
21334;SDS011;10826;52.536;13.432;2022-09-02T15:32:40;1.30;;;1.20;;
21334;SDS011;10826;52.536;13.432;2022-09-02T15:35:10;2.50;;;1.30;;
21334;SDS011;10826;52.536;13.432;2022-09-02T15:37:36;3.40;;;1.83;;
21334;SDS011;10826;52.536;13.432;2022-09-02T15:40:04;2.00;;;1.53;;
21334;SDS011;10826;52.536;13.432;2022-09-02T15:42:34;2.03;;;1.70;;
21334;SDS011;10826;52.536;13.432;2022-09-02T15:45:02;2.10;;;1.10;;
21334;SDS011;10826;52.536;13.432;2022-09-02T15:47:36;2.27;;;1.20;;
21334;SDS011;10826;52.536;13.432;2022-09-02T15:50:04;2.60;;;1.60;;
21334;SDS011;10826;52.536;13.432;2022-09-02T15:52:31;1.37;;;1.27;;
21334;SDS011;10826;52.536;13.432;2022-09-02T15:54:59;4.83;;;1.67;;
21334;SDS011;10826;52.536;13.432;2022-09-02T15:57:26;1.03;;;0.93;;
21334;SDS011;10826;52.536;13.432;2022-09-02T15:59:55;1.37;;;1.27;;
21334;SDS011;10826;52.536;13.432;2022-09-02T16:02:21;1.43;;;0.93;;
21334;SDS011;10826;52.536;13.432;2022-09-02T16:04:48;3.00;;;0.97;;
21334;SDS011;10826;52.536;13.432;2022-09-02T16:07:17;2.27;;;1.10;;
21334;SDS011;10826;52.536;13.432;2022-09-02T16:09:47;3.53;;;1.00;;
21334;SDS011;10826;52.536;13.432;2022-09-02T16:12:13;1.40;;;1.30;;
21334;SDS011;10826;52.536;13.432;2022-09-02T16:14:39;1.10;;;1.00;;
21334;SDS011;10826;52.536;13.432;2022-09-02T16:17:06;1.07;;;0.97;;
21334;SDS011;10826;52.536;13.432;2022-09-02T16:19:40;1.87;;;1.00;;
21334;SDS011;10826;52.536;13.432;2022-09-02T16:22:12;1.30;;;1.20;;
21334;SDS011;10826;52.536;13.432;2022-09-02T16:24:39;1.43;;;1.20;;
21334;SDS011;10826;52.536;13.432;2022-09-02T16:27:06;2.30;;;1.03;;
21334;SDS011;10826;52.536;13.432;2022-09-02T16:29:33;1.60;;;1.50;;
21334;SDS011;10826;52.536;13.432;2022-09-02T16:32:01;1.40;;;1.30;;
21334;SDS011;10826;52.536;13.432;2022-09-02T16:34:29;1.50;;;1.07;;
21334;SDS011;10826;52.536;13.432;2022-09-02T16:36:56;1.13;;;1.03;;
21334;SDS011;10826;52.536;13.432;2022-09-02T16:39:22;2.83;;;1.40;;
21334;SDS011;10826;52.536;13.432;2022-09-02T16:41:50;1.40;;;1.30;;
21334;SDS011;10826;52.536;13.432;2022-09-02T16:44:21;1.93;;;1.80;;
21334;SDS011;10826;52.536;13.432;2022-09-02T16:46:50;1.40;;;1.30;;
21334;SDS011;10826;52.536;13.432;2022-09-02T16:49:19;1.53;;;1.03;;
21334;SDS011;10826;52.536;13.432;2022-09-02T16:51:50;1.30;;;1.13;;
21334;SDS011;10826;52.536;13.432;2022-09-02T16:54:16;1.17;;;1.00;;
21334;SDS011;10826;52.536;13.432;2022-09-02T16:56:47;1.40;;;1.30;;
21334;SDS011;10826;52.536;13.432;2022-09-02T16:59:13;1.20;;;1.10;;
21334;SDS011;10826;52.536;13.432;2022-09-02T17:01:40;1.50;;;0.90;;
21334;SDS011;10826;52.536;13.432;2022-09-02T17:04:09;1.60;;;1.50;;
21334;SDS011;10826;52.536;13.432;2022-09-02T17:06:35;1.80;;;1.10;;
21334;SDS011;10826;52.536;13.432;2022-09-02T17:09:12;1.03;;;1.03;;
21334;SDS011;10826;52.536;13.432;2022-09-02T17:11:39;0.87;;;0.73;;
21334;SDS011;10826;52.536;13.432;2022-09-02T17:14:10;0.90;;;0.90;;
21334;SDS011;10826;52.536;13.432;2022-09-02T17:16:46;1.67;;;1.07;;
21334;SDS011;10826;52.536;13.432;2022-09-02T17:19:14;1.63;;;1.30;;
21334;SDS011;10826;52.536;13.432;2022-09-02T17:21:46;1.63;;;1.10;;
21334;SDS011;10826;52.536;13.432;2022-09-02T17:24:22;2.13;;;1.23;;
21334;SDS011;10826;52.536;13.432;2022-09-02T17:26:52;1.00;;;1.00;;